createdAt,value
2019-01-11T00:02:40.111Z,30.03
2019-01-11T00:07:42.399Z,36.60
2019-01-11T00:12:45.392Z,28.77
2019-01-11T00:17:48.071Z,32.00
2019-01-11T00:22:50.894Z,24.23
2019-01-11T00:27:53.897Z,32.83
2019-01-11T00:32:56.165Z,34.37
2019-01-11T00:37:58.913Z,29.53
2019-01-11T00:43:01.523Z,30.70
2019-01-11T00:48:04.712Z,39.93
2019-01-11T00:53:07.502Z,32.40
2019-01-11T00:58:10.502Z,30.97
2019-01-11T01:03:13.201Z,42.63
2019-01-11T01:08:15.701Z,27.20
2019-01-11T01:13:18.700Z,34.20
2019-01-11T01:18:21.913Z,35.93
2019-01-11T01:23:25.116Z,32.07
2019-01-11T01:28:28.349Z,22.60
2019-01-11T01:33:30.728Z,23.30
2019-01-11T01:38:33.530Z,23.63
2019-01-11T01:43:36.030Z,30.70
2019-01-11T01:48:38.915Z,27.17
2019-01-11T01:53:41.418Z,32.03
2019-01-11T01:58:44.084Z,28.40
2019-01-11T02:03:46.691Z,25.27
2019-01-11T02:08:49.608Z,26.23
2019-01-11T02:13:51.806Z,28.40
2019-01-11T02:18:55.407Z,54.30
2019-01-11T02:23:58.060Z,32.67
2019-01-11T02:29:00.763Z,42.97
2019-01-11T02:34:03.678Z,29.80
2019-01-11T02:39:07.235Z,35.60
2019-01-11T02:44:10.003Z,38.77
2019-01-11T02:49:12.030Z,27.93
2019-01-11T02:54:14.104Z,40.10
2019-01-11T02:59:16.793Z,38.10
2019-01-11T03:04:19.415Z,35.70
2019-01-11T03:09:21.626Z,41.57
2019-01-11T03:14:24.303Z,46.30
2019-01-11T03:19:27.112Z,49.50
2019-01-11T03:24:29.886Z,31.83
2019-01-11T03:29:32.678Z,52.00
2019-01-11T03:34:39.273Z,38.50
2019-01-11T03:39:41.866Z,42.57
2019-01-11T03:44:44.437Z,62.30
2019-01-11T03:49:47.180Z,67.87
2019-01-11T03:54:49.339Z,49.70
2019-01-11T03:59:51.973Z,45.60
2019-01-11T04:04:54.843Z,51.03
2019-01-11T04:09:57.632Z,41.13
2019-01-11T04:15:00.241Z,43.33
2019-01-11T04:20:04.475Z,43.00
2019-01-11T04:25:09.875Z,45.73
2019-01-11T04:30:14.991Z,42.50
2019-01-11T04:35:18.284Z,52.20
2019-01-11T04:40:21.081Z,50.47
2019-01-11T04:45:23.692Z,33.57
2019-01-11T04:50:26.194Z,45.17
2019-01-11T04:55:29.193Z,45.63
2019-01-11T05:00:31.419Z,37.47
2019-01-11T05:05:34.242Z,60.50
2019-01-11T05:10:37.163Z,53.03
2019-01-11T05:15:39.880Z,36.00
2019-01-11T05:20:42.989Z,46.20
2019-01-11T05:25:45.891Z,55.10
2019-01-11T05:30:48.608Z,59.37
2019-01-11T05:35:51.472Z,70.30
2019-01-11T05:40:53.465Z,53.67
2019-01-11T05:45:56.068Z,58.67
2019-01-11T05:50:58.733Z,69.40
2019-01-11T05:56:06.701Z,57.23
2019-01-11T06:01:09.597Z,54.73
2019-01-11T06:06:12.806Z,69.93
2019-01-11T06:11:15.808Z,61.93
2019-01-11T06:16:17.917Z,83.13
2019-01-11T06:21:19.946Z,58.13
2019-01-11T06:26:22.588Z,57.93
2019-01-11T06:31:24.972Z,54.60
2019-01-11T06:36:27.569Z,55.73
2019-01-11T06:41:39.684Z,46.20
2019-01-11T06:46:42.167Z,50.27
2019-01-11T06:51:45.150Z,57.37
2019-01-11T06:56:48.282Z,37.77
2019-01-11T07:01:50.668Z,49.97
2019-01-11T07:06:53.598Z,52.23
2019-01-11T07:11:56.345Z,66.20
2019-01-11T07:16:58.377Z,54.50
2019-01-11T07:22:01.511Z,43.03
2019-01-11T07:27:03.446Z,43.07
2019-01-11T07:32:06.652Z,22.80
2019-01-11T07:37:09.468Z,38.90
2019-01-11T07:42:11.857Z,43.20
2019-01-11T07:47:14.911Z,41.37
2019-01-11T07:52:18.177Z,39.37
2019-01-11T07:57:20.255Z,44.00
2019-01-11T08:02:22.741Z,35.33
2019-01-11T08:07:24.879Z,35.77
2019-01-11T08:12:27.118Z,39.67
2019-01-11T08:17:29.509Z,36.27
2019-01-11T08:22:37.127Z,43.43
2019-01-11T08:27:39.983Z,39.17
2019-01-11T08:32:42.314Z,42.43
2019-01-11T08:37:46.534Z,38.10
2019-01-11T08:42:49.218Z,22.63
2019-01-11T08:47:51.537Z,32.53
2019-01-11T08:52:55.247Z,29.93
2019-01-11T08:57:58.278Z,17.97
2019-01-11T09:03:00.301Z,30.70
2019-01-11T09:08:03.661Z,25.20
2019-01-11T09:13:06.152Z,21.73
2019-01-11T09:18:30.042Z,11.40
2019-01-11T09:23:32.645Z,11.47
2019-01-11T09:28:35.032Z,17.93
2019-01-11T09:33:37.721Z,8.90
2019-01-11T09:38:40.498Z,15.00
2019-01-11T09:43:42.723Z,13.93
2019-01-11T09:48:45.213Z,11.33
2019-01-11T09:53:47.961Z,11.77
2019-01-11T09:58:50.067Z,19.10
2019-01-11T10:03:52.855Z,19.40
2019-01-11T10:08:55.262Z,17.50
2019-01-11T10:13:58.150Z,9.80
2019-01-11T10:19:00.803Z,8.77
2019-01-11T10:24:03.648Z,13.33
2019-01-11T10:29:06.181Z,3.87
2019-01-11T10:34:08.779Z,12.83
2019-01-11T10:39:11.398Z,9.50
2019-01-11T10:44:14.229Z,9.33
2019-01-11T10:49:17.058Z,12.97
2019-01-11T10:54:32.968Z,9.60
2019-01-11T10:59:35.296Z,9.70
2019-01-11T11:04:38.579Z,14.30
2019-01-11T11:09:41.545Z,12.70
2019-01-11T11:14:44.085Z,13.70
2019-01-11T11:19:46.881Z,8.10
2019-01-11T11:24:49.738Z,11.10
2019-01-11T11:29:52.670Z,8.97
2019-01-11T11:34:55.335Z,12.03
2019-01-11T11:39:57.784Z,15.07
2019-01-11T11:44:59.864Z,14.73
2019-01-11T11:50:02.345Z,10.87
2019-01-11T11:55:05.757Z,10.73
2019-01-11T12:00:11.651Z,17.40
2019-01-11T12:05:14.706Z,18.77
2019-01-11T12:10:17.852Z,14.77
2019-01-11T12:15:20.947Z,11.67
2019-01-11T12:20:29.148Z,26.13
2019-01-11T12:25:31.994Z,13.80
2019-01-11T12:30:34.897Z,23.77
2019-01-11T12:35:37.627Z,28.07
2019-01-11T12:40:40.501Z,22.37
2019-01-11T12:45:42.916Z,17.73
2019-01-11T12:50:45.636Z,29.27
2019-01-11T12:55:48.577Z,19.83
2019-01-11T13:00:50.810Z,30.67
2019-01-11T13:05:53.642Z,30.40
2019-01-11T13:10:56.208Z,15.70
2019-01-11T13:15:58.953Z,27.13
2019-01-11T13:21:01.453Z,34.63
2019-01-11T13:26:04.712Z,45.20
2019-01-11T13:31:07.531Z,31.83
2019-01-11T13:36:14.684Z,30.23
2019-01-11T13:41:17.331Z,25.77
2019-01-11T13:46:20.161Z,46.77
2019-01-11T13:51:22.853Z,35.03
2019-01-11T13:56:25.506Z,45.30
2019-01-11T14:01:28.384Z,42.43
2019-01-11T14:06:31.277Z,38.50
2019-01-11T14:11:33.949Z,36.77
2019-01-11T14:16:36.754Z,51.53
2019-01-11T14:21:39.431Z,50.80
2019-01-11T14:26:42.380Z,43.00
2019-01-11T14:31:45.492Z,47.40
2019-01-11T14:36:48.282Z,47.77
2019-01-11T14:41:51.254Z,44.60
2019-01-11T14:46:54.191Z,56.50
2019-01-11T14:51:57.428Z,32.47
2019-01-11T14:57:00.239Z,57.10
2019-01-11T15:02:02.893Z,49.40
2019-01-11T15:07:05.894Z,50.10
2019-01-11T15:12:08.502Z,56.60
2019-01-11T15:17:11.103Z,59.43
2019-01-11T15:22:14.398Z,61.10
2019-01-11T15:27:16.273Z,41.50
2019-01-11T15:32:18.912Z,68.23
2019-01-11T15:37:22.015Z,50.53
2019-01-11T15:42:24.785Z,46.83
2019-01-11T15:47:27.512Z,68.50
2019-01-11T15:52:33.483Z,76.43
2019-01-11T15:57:41.891Z,50.43
2019-01-11T16:02:44.652Z,72.63
2019-01-11T16:07:48.811Z,51.63
2019-01-11T16:13:20.907Z,78.63
2019-01-11T16:18:25.961Z,58.67
2019-01-11T16:23:28.822Z,60.33
2019-01-11T16:28:31.616Z,74.20
2019-01-11T16:33:34.070Z,59.73
2019-01-11T16:38:36.458Z,61.73
2019-01-11T16:43:39.724Z,78.30
2019-01-11T16:48:42.164Z,67.47
2019-01-11T16:53:45.257Z,65.47
2019-01-11T16:58:48.158Z,71.23
2019-01-11T17:03:50.661Z,68.57
2019-01-11T17:08:53.755Z,61.27
2019-01-11T17:13:56.660Z,72.10
2019-01-11T17:18:59.451Z,66.73
2019-01-11T17:24:01.959Z,61.37
2019-01-11T17:29:04.989Z,68.17
2019-01-11T17:34:08.294Z,82.23
2019-01-11T17:39:11.047Z,79.93
2019-01-11T17:44:13.566Z,83.00
2019-01-11T17:49:16.477Z,89.23
2019-01-11T17:54:19.221Z,65.83
2019-01-11T17:59:21.662Z,91.23
2019-01-11T18:04:24.473Z,72.30
2019-01-11T18:09:27.306Z,65.70
2019-01-11T18:14:29.562Z,63.80
2019-01-11T18:19:32.715Z,68.90
2019-01-11T18:24:35.679Z,73.57
2019-01-11T18:29:38.824Z,72.83
2019-01-11T18:34:41.900Z,80.30
2019-01-11T18:39:44.699Z,72.27
2019-01-11T18:44:47.589Z,64.00
2019-01-11T18:49:51.408Z,70.43
2019-01-11T18:54:54.107Z,91.77
2019-01-11T18:59:56.813Z,86.73
2019-01-11T19:04:59.713Z,97.90
2019-01-11T19:10:03.256Z,69.70
2019-01-11T19:15:08.487Z,70.37
2019-01-11T19:20:18.051Z,67.53
2019-01-11T19:25:21.281Z,67.57
2019-01-11T19:30:27.124Z,74.53
2019-01-11T19:35:29.821Z,74.23
2019-01-11T19:40:33.379Z,71.77
2019-01-11T19:45:36.631Z,54.87
2019-01-11T19:50:40.636Z,77.20
2019-01-11T19:55:43.523Z,65.30
2019-01-11T20:00:47.901Z,49.90
2019-01-11T20:05:50.402Z,67.63
2019-01-11T20:10:55.158Z,85.67
2019-01-11T20:16:01.135Z,62.47
2019-01-11T20:21:05.138Z,56.67
2019-01-11T20:26:09.530Z,53.83
2019-01-11T20:31:14.109Z,60.20
2019-01-11T20:36:17.610Z,47.30
2019-01-11T20:41:23.803Z,45.50
2019-01-11T20:46:29.987Z,71.60
2019-01-11T20:51:34.085Z,66.83
2019-01-11T20:56:38.279Z,70.50
2019-01-11T21:01:42.977Z,53.63
2019-01-11T21:06:47.751Z,89.60
2019-01-11T21:11:51.665Z,64.50
2019-01-11T21:16:54.764Z,52.60
2019-01-11T21:21:58.566Z,61.97
2019-01-11T21:27:01.956Z,70.87
2019-01-11T21:32:04.771Z,48.43
2019-01-11T21:37:08.289Z,55.33
2019-01-11T21:42:11.448Z,78.90
2019-01-11T21:47:14.063Z,58.43
2019-01-11T21:52:16.884Z,72.67
2019-01-11T21:57:19.512Z,52.23
2019-01-11T22:02:21.870Z,73.00
2019-01-11T22:07:24.157Z,57.60
2019-01-11T22:12:27.366Z,61.07
2019-01-11T22:17:30.151Z,53.93
2019-01-11T22:22:32.842Z,59.33
2019-01-11T22:27:35.777Z,61.47
2019-01-11T22:32:38.800Z,81.70
2019-01-11T22:37:41.990Z,68.13
2019-01-11T22:42:44.957Z,52.17
2019-01-11T22:47:48.085Z,64.33
2019-01-11T22:52:50.577Z,61.93
2019-01-11T22:57:53.372Z,51.20
2019-01-11T23:02:57.633Z,66.57
2019-01-11T23:08:03.193Z,74.87
2019-01-11T23:13:09.449Z,51.67
2019-01-11T23:18:14.119Z,57.83
2019-01-11T23:23:17.119Z,61.17
2019-01-11T23:28:19.565Z,52.70
2019-01-11T23:33:22.450Z,65.57
2019-01-11T23:38:25.517Z,60.00
2019-01-11T23:43:27.863Z,64.57
2019-01-11T23:48:30.567Z,53.10
2019-01-11T23:53:33.100Z,51.00
2019-01-11T23:58:35.756Z,50.43
